sensor_id;sensor_type;location;lat;lon;timestamp;P1;durP1;ratioP1;P2;durP2;ratioP2
57191;SDS011;43052;52.588;13.396;2023-02-02T00:01:19;14.30;;;2.97;;
57191;SDS011;43052;52.588;13.396;2023-02-02T00:03:44;15.00;;;2.95;;
57191;SDS011;43052;52.588;13.396;2023-02-02T00:06:10;10.63;;;2.30;;
57191;SDS011;43052;52.588;13.396;2023-02-02T00:08:35;17.42;;;4.38;;
57191;SDS011;43052;52.588;13.396;2023-02-02T00:11:02;13.00;;;3.53;;
57191;SDS011;43052;52.588;13.396;2023-02-02T00:13:27;13.05;;;2.88;;
57191;SDS011;43052;52.588;13.396;2023-02-02T00:15:52;15.68;;;2.78;;
57191;SDS011;43052;52.588;13.396;2023-02-02T00:18:18;11.57;;;3.47;;
57191;SDS011;43052;52.588;13.396;2023-02-02T00:20:43;18.42;;;3.80;;
57191;SDS011;43052;52.588;13.396;2023-02-02T00:23:09;13.57;;;2.78;;
57191;SDS011;43052;52.588;13.396;2023-02-02T00:25:34;13.35;;;2.63;;
57191;SDS011;43052;52.588;13.396;2023-02-02T00:27:59;16.60;;;2.60;;
57191;SDS011;43052;52.588;13.396;2023-02-02T00:30:25;7.40;;;2.53;;
57191;SDS011;43052;52.588;13.396;2023-02-02T00:32:50;13.85;;;3.03;;
57191;SDS011;43052;52.588;13.396;2023-02-02T00:35:17;13.60;;;2.65;;
57191;SDS011;43052;52.588;13.396;2023-02-02T00:37:42;12.35;;;3.03;;
57191;SDS011;43052;52.588;13.396;2023-02-02T00:40:08;14.85;;;3.63;;
57191;SDS011;43052;52.588;13.396;2023-02-02T00:42:34;12.52;;;3.55;;
57191;SDS011;43052;52.588;13.396;2023-02-02T00:44:59;11.30;;;2.63;;
57191;SDS011;43052;52.588;13.396;2023-02-02T00:47:44;13.55;;;3.00;;
57191;SDS011;43052;52.588;13.396;2023-02-02T00:50:12;10.60;;;2.53;;
57191;SDS011;43052;52.588;13.396;2023-02-02T00:52:43;13.13;;;2.92;;
57191;SDS011;43052;52.588;13.396;2023-02-02T00:55:09;13.25;;;2.90;;
57191;SDS011;43052;52.588;13.396;2023-02-02T00:57:35;10.60;;;2.10;;
57191;SDS011;43052;52.588;13.396;2023-02-02T01:00:01;16.65;;;3.50;;
57191;SDS011;43052;52.588;13.396;2023-02-02T01:02:27;13.23;;;3.05;;
57191;SDS011;43052;52.588;13.396;2023-02-02T01:04:52;10.80;;;2.35;;
57191;SDS011;43052;52.588;13.396;2023-02-02T01:07:17;11.82;;;2.50;;
57191;SDS011;43052;52.588;13.396;2023-02-02T01:09:43;14.80;;;2.95;;
57191;SDS011;43052;52.588;13.396;2023-02-02T01:12:08;12.02;;;2.75;;
57191;SDS011;43052;52.588;13.396;2023-02-02T01:14:33;7.15;;;2.35;;
57191;SDS011;43052;52.588;13.396;2023-02-02T01:16:58;11.43;;;2.92;;
57191;SDS011;43052;52.588;13.396;2023-02-02T01:19:24;9.48;;;2.65;;
57191;SDS011;43052;52.588;13.396;2023-02-02T01:21:49;14.63;;;2.90;;
57191;SDS011;43052;52.588;13.396;2023-02-02T01:24:15;16.33;;;2.97;;
57191;SDS011;43052;52.588;13.396;2023-02-02T01:26:40;13.45;;;2.85;;
57191;SDS011;43052;52.588;13.396;2023-02-02T01:29:05;15.95;;;3.83;;
57191;SDS011;43052;52.588;13.396;2023-02-02T01:31:30;12.88;;;2.70;;
57191;SDS011;43052;52.588;13.396;2023-02-02T01:33:56;8.38;;;2.60;;
57191;SDS011;43052;52.588;13.396;2023-02-02T01:36:22;12.30;;;2.63;;
57191;SDS011;43052;52.588;13.396;2023-02-02T01:38:48;8.98;;;3.20;;
57191;SDS011;43052;52.588;13.396;2023-02-02T01:41:15;12.63;;;2.50;;
57191;SDS011;43052;52.588;13.396;2023-02-02T01:46:21;14.70;;;2.88;;
57191;SDS011;43052;52.588;13.396;2023-02-02T01:51:23;9.90;;;2.57;;
57191;SDS011;43052;52.588;13.396;2023-02-02T01:53:53;13.27;;;3.22;;
57191;SDS011;43052;52.588;13.396;2023-02-02T01:56:23;7.65;;;2.20;;
57191;SDS011;43052;52.588;13.396;2023-02-02T01:58:52;12.43;;;2.60;;
57191;SDS011;43052;52.588;13.396;2023-02-02T02:01:18;14.57;;;3.15;;
57191;SDS011;43052;52.588;13.396;2023-02-02T02:03:43;10.23;;;2.35;;
57191;SDS011;43052;52.588;13.396;2023-02-02T02:06:10;11.50;;;2.95;;
57191;SDS011;43052;52.588;13.396;2023-02-02T02:08:46;10.95;;;2.95;;
57191;SDS011;43052;52.588;13.396;2023-02-02T02:11:26;15.13;;;3.22;;
57191;SDS011;43052;52.588;13.396;2023-02-02T02:13:52;9.15;;;2.33;;
57191;SDS011;43052;52.588;13.396;2023-02-02T02:16:45;18.50;;;3.00;;
57191;SDS011;43052;52.588;13.396;2023-02-02T02:19:44;12.88;;;3.22;;
57191;SDS011;43052;52.588;13.396;2023-02-02T02:32:02;10.38;;;2.40;;
57191;SDS011;43052;52.588;13.396;2023-02-02T02:34:51;12.75;;;2.95;;
57191;SDS011;43052;52.588;13.396;2023-02-02T02:37:36;13.40;;;2.95;;
57191;SDS011;43052;52.588;13.396;2023-02-02T02:42:48;14.90;;;2.97;;
57191;SDS011;43052;52.588;13.396;2023-02-02T02:47:44;11.80;;;3.60;;
57191;SDS011;43052;52.588;13.396;2023-02-02T02:50:10;10.18;;;2.75;;
57191;SDS011;43052;52.588;13.396;2023-02-02T02:52:35;9.07;;;2.22;;
57191;SDS011;43052;52.588;13.396;2023-02-02T02:55:02;10.73;;;2.90;;
57191;SDS011;43052;52.588;13.396;2023-02-02T02:57:36;8.20;;;2.08;;
57191;SDS011;43052;52.588;13.396;2023-02-02T03:00:33;10.02;;;2.05;;
57191;SDS011;43052;52.588;13.396;2023-02-02T03:08:47;12.35;;;3.35;;
57191;SDS011;43052;52.588;13.396;2023-02-02T03:11:17;11.90;;;2.30;;
57191;SDS011;43052;52.588;13.396;2023-02-02T03:13:43;9.15;;;2.05;;
57191;SDS011;43052;52.588;13.396;2023-02-02T03:16:09;9.23;;;2.40;;
57191;SDS011;43052;52.588;13.396;2023-02-02T03:18:35;13.38;;;2.40;;
57191;SDS011;43052;52.588;13.396;2023-02-02T03:21:01;10.07;;;2.10;;
57191;SDS011;43052;52.588;13.396;2023-02-02T03:23:26;8.77;;;2.25;;
57191;SDS011;43052;52.588;13.396;2023-02-02T03:25:52;8.13;;;2.25;;
57191;SDS011;43052;52.588;13.396;2023-02-02T03:28:18;11.63;;;2.67;;
57191;SDS011;43052;52.588;13.396;2023-02-02T03:30:45;10.38;;;2.40;;
57191;SDS011;43052;52.588;13.396;2023-02-02T03:33:12;9.93;;;3.33;;
57191;SDS011;43052;52.588;13.396;2023-02-02T03:35:38;11.00;;;3.08;;
57191;SDS011;43052;52.588;13.396;2023-02-02T03:38:04;10.32;;;2.20;;
57191;SDS011;43052;52.588;13.396;2023-02-02T03:40:29;7.60;;;2.22;;
57191;SDS011;43052;52.588;13.396;2023-02-02T03:42:54;9.88;;;1.80;;
57191;SDS011;43052;52.588;13.396;2023-02-02T03:45:20;10.23;;;1.85;;
57191;SDS011;43052;52.588;13.396;2023-02-02T03:47:45;5.50;;;1.67;;
57191;SDS011;43052;52.588;13.396;2023-02-02T03:50:10;9.93;;;1.95;;
57191;SDS011;43052;52.588;13.396;2023-02-02T03:52:36;11.77;;;2.17;;
57191;SDS011;43052;52.588;13.396;2023-02-02T03:55:01;7.90;;;2.13;;
57191;SDS011;43052;52.588;13.396;2023-02-02T03:57:27;7.90;;;2.75;;
57191;SDS011;43052;52.588;13.396;2023-02-02T03:59:52;11.70;;;2.40;;
57191;SDS011;43052;52.588;13.396;2023-02-02T04:02:17;8.20;;;2.25;;
57191;SDS011;43052;52.588;13.396;2023-02-02T04:04:43;12.13;;;2.40;;
57191;SDS011;43052;52.588;13.396;2023-02-02T04:07:08;10.45;;;2.10;;
57191;SDS011;43052;52.588;13.396;2023-02-02T04:09:33;7.90;;;1.95;;
57191;SDS011;43052;52.588;13.396;2023-02-02T04:11:59;13.98;;;3.38;;
57191;SDS011;43052;52.588;13.396;2023-02-02T04:14:24;8.70;;;2.03;;
57191;SDS011;43052;52.588;13.396;2023-02-02T04:16:49;8.40;;;1.77;;
57191;SDS011;43052;52.588;13.396;2023-02-02T04:19:15;10.35;;;2.30;;
57191;SDS011;43052;52.588;13.396;2023-02-02T04:21:40;12.63;;;2.38;;
57191;SDS011;43052;52.588;13.396;2023-02-02T04:24:09;9.23;;;1.65;;
57191;SDS011;43052;52.588;13.396;2023-02-02T04:26:35;12.93;;;2.40;;
57191;SDS011;43052;52.588;13.396;2023-02-02T04:29:00;6.82;;;2.10;;
57191;SDS011;43052;52.588;13.396;2023-02-02T04:31:26;8.48;;;2.25;;
57191;SDS011;43052;52.588;13.396;2023-02-02T04:33:51;8.95;;;1.83;;
57191;SDS011;43052;52.588;13.396;2023-02-02T04:36:16;10.95;;;2.42;;
57191;SDS011;43052;52.588;13.396;2023-02-02T04:38:41;12.55;;;2.47;;
57191;SDS011;43052;52.588;13.396;2023-02-02T04:41:08;10.65;;;2.63;;
57191;SDS011;43052;52.588;13.396;2023-02-02T04:43:35;9.25;;;2.63;;
57191;SDS011;43052;52.588;13.396;2023-02-02T04:46:02;9.90;;;2.92;;
57191;SDS011;43052;52.588;13.396;2023-02-02T04:48:27;7.65;;;2.30;;
57191;SDS011;43052;52.588;13.396;2023-02-02T04:50:59;9.27;;;2.20;;
57191;SDS011;43052;52.588;13.396;2023-02-02T04:53:28;9.85;;;2.17;;
57191;SDS011;43052;52.588;13.396;2023-02-02T04:55:54;9.18;;;2.00;;
57191;SDS011;43052;52.588;13.396;2023-02-02T04:58:20;6.65;;;1.73;;
57191;SDS011;43052;52.588;13.396;2023-02-02T05:00:45;8.95;;;2.83;;
57191;SDS011;43052;52.588;13.396;2023-02-02T05:03:11;9.57;;;2.08;;
57191;SDS011;43052;52.588;13.396;2023-02-02T05:05:36;9.68;;;1.90;;
57191;SDS011;43052;52.588;13.396;2023-02-02T05:08:01;10.35;;;2.00;;
57191;SDS011;43052;52.588;13.396;2023-02-02T05:10:26;7.80;;;1.83;;
57191;SDS011;43052;52.588;13.396;2023-02-02T05:12:52;9.88;;;2.10;;
57191;SDS011;43052;52.588;13.396;2023-02-02T05:15:17;6.50;;;1.92;;
57191;SDS011;43052;52.588;13.396;2023-02-02T05:17:43;11.60;;;2.25;;
57191;SDS011;43052;52.588;13.396;2023-02-02T05:20:08;8.88;;;2.15;;
57191;SDS011;43052;52.588;13.396;2023-02-02T05:22:34;11.05;;;2.60;;
57191;SDS011;43052;52.588;13.396;2023-02-02T05:24:59;13.20;;;2.17;;
57191;SDS011;43052;52.588;13.396;2023-02-02T05:27:24;9.68;;;2.22;;
57191;SDS011;43052;52.588;13.396;2023-02-02T05:29:50;9.48;;;1.98;;
57191;SDS011;43052;52.588;13.396;2023-02-02T05:32:15;7.38;;;1.55;;
57191;SDS011;43052;52.588;13.396;2023-02-02T05:34:40;7.15;;;2.05;;
57191;SDS011;43052;52.588;13.396;2023-02-02T05:37:06;7.68;;;2.42;;
57191;SDS011;43052;52.588;13.396;2023-02-02T05:39:31;11.10;;;2.38;;
57191;SDS011;43052;52.588;13.396;2023-02-02T05:41:56;10.82;;;2.90;;
57191;SDS011;43052;52.588;13.396;2023-02-02T05:44:21;8.43;;;1.83;;
57191;SDS011;43052;52.588;13.396;2023-02-02T05:46:47;11.98;;;2.03;;
57191;SDS011;43052;52.588;13.396;2023-02-02T05:49:12;6.53;;;1.88;;
57191;SDS011;43052;52.588;13.396;2023-02-02T05:51:39;9.07;;;2.17;;
57191;SDS011;43052;52.588;13.396;2023-02-02T05:54:08;8.05;;;2.08;;
57191;SDS011;43052;52.588;13.396;2023-02-02T05:56:33;10.65;;;2.20;;
57191;SDS011;43052;52.588;13.396;2023-02-02T05:58:58;10.63;;;2.15;;
57191;SDS011;43052;52.588;13.396;2023-02-02T06:01:24;9.43;;;1.92;;
57191;SDS011;43052;52.588;13.396;2023-02-02T06:03:49;7.60;;;1.95;;
57191;SDS011;43052;52.588;13.396;2023-02-02T06:06:14;9.05;;;1.80;;
57191;SDS011;43052;52.588;13.396;2023-02-02T06:08:40;10.85;;;2.33;;
57191;SDS011;43052;52.588;13.396;2023-02-02T06:11:12;10.45;;;1.90;;
57191;SDS011;43052;52.588;13.396;2023-02-02T06:13:41;5.55;;;1.42;;
57191;SDS011;43052;52.588;13.396;2023-02-02T06:16:06;7.65;;;2.15;;
57191;SDS011;43052;52.588;13.396;2023-02-02T06:18:32;8.70;;;2.20;;
57191;SDS011;43052;52.588;13.396;2023-02-02T06:20:59;11.13;;;2.20;;
57191;SDS011;43052;52.588;13.396;2023-02-02T06:23:25;8.85;;;2.42;;
57191;SDS011;43052;52.588;13.396;2023-02-02T06:25:51;9.70;;;2.13;;
57191;SDS011;43052;52.588;13.396;2023-02-02T06:28:16;10.48;;;2.55;;
57191;SDS011;43052;52.588;13.396;2023-02-02T06:30:42;10.30;;;1.90;;
57191;SDS011;43052;52.588;13.396;2023-02-02T06:33:07;8.77;;;2.10;;
57191;SDS011;43052;52.588;13.396;2023-02-02T06:35:32;10.20;;;2.13;;
57191;SDS011;43052;52.588;13.396;2023-02-02T06:37:58;10.80;;;1.98;;
57191;SDS011;43052;52.588;13.396;2023-02-02T06:40:23;9.10;;;2.38;;
57191;SDS011;43052;52.588;13.396;2023-02-02T06:42:54;11.30;;;2.13;;
57191;SDS011;43052;52.588;13.396;2023-02-02T06:45:24;10.55;;;2.00;;
57191;SDS011;43052;52.588;13.396;2023-02-02T06:47:49;11.20;;;2.20;;
57191;SDS011;43052;52.588;13.396;2023-02-02T06:50:14;9.73;;;2.15;;
57191;SDS011;43052;52.588;13.396;2023-02-02T06:52:45;8.93;;;2.00;;
57191;SDS011;43052;52.588;13.396;2023-02-02T06:55:12;8.63;;;2.08;;
57191;SDS011;43052;52.588;13.396;2023-02-02T06:57:37;11.25;;;2.72;;
57191;SDS011;43052;52.588;13.396;2023-02-02T07:00:03;10.43;;;1.90;;
57191;SDS011;43052;52.588;13.396;2023-02-02T07:02:28;7.95;;;2.00;;
57191;SDS011;43052;52.588;13.396;2023-02-02T07:04:53;9.18;;;2.70;;
57191;SDS011;43052;52.588;13.396;2023-02-02T07:07:19;7.93;;;1.85;;
57191;SDS011;43052;52.588;13.396;2023-02-02T07:09:44;11.90;;;2.00;;
57191;SDS011;43052;52.588;13.396;2023-02-02T07:12:09;8.80;;;2.10;;
57191;SDS011;43052;52.588;13.396;2023-02-02T07:14:34;9.70;;;2.00;;
57191;SDS011;43052;52.588;13.396;2023-02-02T07:16:59;11.90;;;2.78;;
57191;SDS011;43052;52.588;13.396;2023-02-02T07:19:25;9.18;;;2.17;;
57191;SDS011;43052;52.588;13.396;2023-02-02T07:21:50;9.68;;;2.40;;
57191;SDS011;43052;52.588;13.396;2023-02-02T07:24:15;11.55;;;2.50;;
57191;SDS011;43052;52.588;13.396;2023-02-02T07:26:41;7.43;;;2.00;;
57191;SDS011;43052;52.588;13.396;2023-02-02T07:29:06;10.52;;;2.17;;
57191;SDS011;43052;52.588;13.396;2023-02-02T07:31:31;8.90;;;2.28;;
57191;SDS011;43052;52.588;13.396;2023-02-02T07:33:56;10.23;;;1.90;;
57191;SDS011;43052;52.588;13.396;2023-02-02T07:36:22;8.27;;;2.15;;
57191;SDS011;43052;52.588;13.396;2023-02-02T07:38:49;12.50;;;3.28;;
57191;SDS011;43052;52.588;13.396;2023-02-02T07:41:15;7.38;;;2.05;;
57191;SDS011;43052;52.588;13.396;2023-02-02T07:43:41;9.20;;;2.10;;
57191;SDS011;43052;52.588;13.396;2023-02-02T07:46:07;8.75;;;2.30;;
57191;SDS011;43052;52.588;13.396;2023-02-02T07:48:34;9.93;;;3.15;;
57191;SDS011;43052;52.588;13.396;2023-02-02T07:51:01;6.32;;;2.03;;
57191;SDS011;43052;52.588;13.396;2023-02-02T07:53:30;9.35;;;1.95;;
57191;SDS011;43052;52.588;13.396;2023-02-02T07:56:06;10.60;;;2.17;;
57191;SDS011;43052;52.588;13.396;2023-02-02T07:58:42;7.57;;;2.15;;
57191;SDS011;43052;52.588;13.396;2023-02-02T08:01:09;6.75;;;2.15;;
57191;SDS011;43052;52.588;13.396;2023-02-02T08:03:35;8.90;;;1.90;;
57191;SDS011;43052;52.588;13.396;2023-02-02T08:06:06;6.63;;;1.92;;
57191;SDS011;43052;52.588;13.396;2023-02-02T08:08:38;6.22;;;2.25;;
57191;SDS011;43052;52.588;13.396;2023-02-02T08:11:03;8.02;;;1.95;;
57191;SDS011;43052;52.588;13.396;2023-02-02T08:13:28;7.63;;;2.60;;
57191;SDS011;43052;52.588;13.396;2023-02-02T08:15:56;6.97;;;1.75;;
57191;SDS011;43052;52.588;13.396;2023-02-02T08:18:22;6.97;;;1.60;;
57191;SDS011;43052;52.588;13.396;2023-02-02T08:20:47;7.97;;;1.80;;
57191;SDS011;43052;52.588;13.396;2023-02-02T08:23:13;8.70;;;2.20;;
57191;SDS011;43052;52.588;13.396;2023-02-02T08:25:40;6.78;;;2.08;;
57191;SDS011;43052;52.588;13.396;2023-02-02T08:28:06;9.27;;;2.45;;
57191;SDS011;43052;52.588;13.396;2023-02-02T08:30:33;6.80;;;1.98;;
57191;SDS011;43052;52.588;13.396;2023-02-02T08:32:59;6.90;;;1.75;;
57191;SDS011;43052;52.588;13.396;2023-02-02T08:35:24;9.10;;;2.20;;
57191;SDS011;43052;52.588;13.396;2023-02-02T08:37:49;8.57;;;2.20;;
57191;SDS011;43052;52.588;13.396;2023-02-02T08:40:15;10.57;;;2.15;;
57191;SDS011;43052;52.588;13.396;2023-02-02T08:42:40;11.85;;;6.32;;
57191;SDS011;43052;52.588;13.396;2023-02-02T08:45:07;6.80;;;2.60;;
57191;SDS011;43052;52.588;13.396;2023-02-02T08:47:32;6.05;;;1.55;;
57191;SDS011;43052;52.588;13.396;2023-02-02T08:49:58;8.10;;;1.90;;
57191;SDS011;43052;52.588;13.396;2023-02-02T08:52:23;7.60;;;2.17;;
57191;SDS011;43052;52.588;13.396;2023-02-02T08:54:48;6.78;;;1.85;;
57191;SDS011;43052;52.588;13.396;2023-02-02T08:57:13;9.30;;;2.70;;
57191;SDS011;43052;52.588;13.396;2023-02-02T08:59:39;11.27;;;2.88;;
57191;SDS011;43052;52.588;13.396;2023-02-02T09:02:04;6.65;;;2.15;;
57191;SDS011;43052;52.588;13.396;2023-02-02T09:04:30;9.35;;;2.17;;
57191;SDS011;43052;52.588;13.396;2023-02-02T09:06:55;5.78;;;1.90;;
57191;SDS011;43052;52.588;13.396;2023-02-02T09:09:20;9.48;;;2.22;;
57191;SDS011;43052;52.588;13.396;2023-02-02T09:11:46;7.88;;;2.38;;
57191;SDS011;43052;52.588;13.396;2023-02-02T09:14:11;7.38;;;1.83;;
57191;SDS011;43052;52.588;13.396;2023-02-02T09:16:37;8.65;;;2.13;;
57191;SDS011;43052;52.588;13.396;2023-02-02T09:19:03;9.13;;;2.20;;
57191;SDS011;43052;52.588;13.396;2023-02-02T09:21:29;8.05;;;1.98;;
57191;SDS011;43052;52.588;13.396;2023-02-02T09:23:54;10.10;;;2.50;;
57191;SDS011;43052;52.588;13.396;2023-02-02T09:26:21;6.75;;;2.53;;
57191;SDS011;43052;52.588;13.396;2023-02-02T09:28:50;5.35;;;1.85;;
57191;SDS011;43052;52.588;13.396;2023-02-02T09:31:17;6.30;;;1.45;;
57191;SDS011;43052;52.588;13.396;2023-02-02T09:33:42;4.35;;;1.55;;
57191;SDS011;43052;52.588;13.396;2023-02-02T09:38:34;8.00;;;1.90;;
57191;SDS011;43052;52.588;13.396;2023-02-02T09:41:00;5.93;;;1.45;;
57191;SDS011;43052;52.588;13.396;2023-02-02T09:43:48;7.00;;;1.65;;
57191;SDS011;43052;52.588;13.396;2023-02-02T09:46:28;12.90;;;2.38;;
57191;SDS011;43052;52.588;13.396;2023-02-02T09:51:25;6.93;;;1.80;;
57191;SDS011;43052;52.588;13.396;2023-02-02T09:54:01;7.43;;;1.90;;
57191;SDS011;43052;52.588;13.396;2023-02-02T09:56:37;7.55;;;2.05;;
57191;SDS011;43052;52.588;13.396;2023-02-02T09:59:05;7.82;;;2.05;;
57191;SDS011;43052;52.588;13.396;2023-02-02T10:01:36;7.70;;;2.00;;
57191;SDS011;43052;52.588;13.396;2023-02-02T10:04:18;7.18;;;2.00;;
57191;SDS011;43052;52.588;13.396;2023-02-02T10:06:49;8.50;;;2.15;;
57191;SDS011;43052;52.588;13.396;2023-02-02T10:09:19;8.27;;;1.73;;
57191;SDS011;43052;52.588;13.396;2023-02-02T10:12:04;6.88;;;1.70;;
57191;SDS011;43052;52.588;13.396;2023-02-02T10:14:50;9.48;;;2.45;;
57191;SDS011;43052;52.588;13.396;2023-02-02T10:20:02;4.78;;;1.77;;
57191;SDS011;43052;52.588;13.396;2023-02-02T10:22:47;6.95;;;2.10;;
57191;SDS011;43052;52.588;13.396;2023-02-02T10:25:14;7.88;;;2.13;;
57191;SDS011;43052;52.588;13.396;2023-02-02T10:27:40;6.88;;;2.28;;
57191;SDS011;43052;52.588;13.396;2023-02-02T10:30:17;5.57;;;1.48;;
57191;SDS011;43052;52.588;13.396;2023-02-02T10:32:54;3.45;;;1.83;;
57191;SDS011;43052;52.588;13.396;2023-02-02T10:35:32;7.13;;;1.83;;
57191;SDS011;43052;52.588;13.396;2023-02-02T10:44:05;7.00;;;1.70;;
57191;SDS011;43052;52.588;13.396;2023-02-02T10:46:42;6.70;;;1.50;;
57191;SDS011;43052;52.588;13.396;2023-02-02T10:54:41;4.72;;;1.55;;
57191;SDS011;43052;52.588;13.396;2023-02-02T10:57:13;5.28;;;1.40;;
57191;SDS011;43052;52.588;13.396;2023-02-02T10:59:59;5.07;;;1.60;;
57191;SDS011;43052;52.588;13.396;2023-02-02T11:02:27;7.85;;;1.33;;
57191;SDS011;43052;52.588;13.396;2023-02-02T11:04:52;8.52;;;1.63;;
57191;SDS011;43052;52.588;13.396;2023-02-02T11:07:36;6.03;;;1.50;;
57191;SDS011;43052;52.588;13.396;2023-02-02T11:10:01;5.93;;;1.60;;
57191;SDS011;43052;52.588;13.396;2023-02-02T11:12:29;5.45;;;1.63;;
57191;SDS011;43052;52.588;13.396;2023-02-02T11:14:58;7.05;;;1.80;;
57191;SDS011;43052;52.588;13.396;2023-02-02T11:17:28;8.65;;;1.60;;
57191;SDS011;43052;52.588;13.396;2023-02-02T11:19:54;3.78;;;1.50;;
57191;SDS011;43052;52.588;13.396;2023-02-02T11:22:26;6.05;;;1.20;;
57191;SDS011;43052;52.588;13.396;2023-02-02T11:24:59;8.40;;;1.92;;
57191;SDS011;43052;52.588;13.396;2023-02-02T11:27:34;5.72;;;1.38;;
57191;SDS011;43052;52.588;13.396;2023-02-02T11:30:23;6.40;;;1.55;;
57191;SDS011;43052;52.588;13.396;2023-02-02T11:32:55;5.00;;;1.27;;
57191;SDS011;43052;52.588;13.396;2023-02-02T11:35:24;4.38;;;1.73;;
57191;SDS011;43052;52.588;13.396;2023-02-02T11:37:52;4.85;;;1.20;;
57191;SDS011;43052;52.588;13.396;2023-02-02T11:42:52;6.35;;;1.30;;
57191;SDS011;43052;52.588;13.396;2023-02-02T11:45:22;6.22;;;1.63;;
57191;SDS011;43052;52.588;13.396;2023-02-02T11:48:01;4.85;;;1.60;;
57191;SDS011;43052;52.588;13.396;2023-02-02T11:50:29;5.72;;;1.58;;
57191;SDS011;43052;52.588;13.396;2023-02-02T11:52:54;9.05;;;1.60;;
57191;SDS011;43052;52.588;13.396;2023-02-02T11:55:23;7.13;;;1.75;;
57191;SDS011;43052;52.588;13.396;2023-02-02T12:00:46;6.63;;;1.67;;
57191;SDS011;43052;52.588;13.396;2023-02-02T12:03:25;5.95;;;1.92;;
57191;SDS011;43052;52.588;13.396;2023-02-02T12:05:53;6.35;;;1.60;;
57191;SDS011;43052;52.588;13.396;2023-02-02T12:08:19;4.70;;;1.38;;
57191;SDS011;43052;52.588;13.396;2023-02-02T12:10:56;6.00;;;1.35;;
57191;SDS011;43052;52.588;13.396;2023-02-02T12:13:34;4.88;;;1.50;;
57191;SDS011;43052;52.588;13.396;2023-02-02T12:16:10;11.27;;;2.13;;
57191;SDS011;43052;52.588;13.396;2023-02-02T12:21:36;4.43;;;1.33;;
57191;SDS011;43052;52.588;13.396;2023-02-02T12:24:19;4.43;;;1.38;;
57191;SDS011;43052;52.588;13.396;2023-02-02T12:27:05;5.50;;;1.60;;
57191;SDS011;43052;52.588;13.396;2023-02-02T12:29:53;5.03;;;1.40;;
57191;SDS011;43052;52.588;13.396;2023-02-02T12:35:31;7.22;;;1.63;;
57191;SDS011;43052;52.588;13.396;2023-02-02T12:38:30;4.00;;;1.60;;
57191;SDS011;43052;52.588;13.396;2023-02-02T12:43:54;5.20;;;1.80;;
57191;SDS011;43052;52.588;13.396;2023-02-02T12:49:44;6.47;;;1.70;;
57191;SDS011;43052;52.588;13.396;2023-02-02T12:52:35;5.50;;;1.40;;
57191;SDS011;43052;52.588;13.396;2023-02-02T12:55:18;6.28;;;1.63;;
57191;SDS011;43052;52.588;13.396;2023-02-02T13:03:35;6.03;;;1.73;;
57191;SDS011;43052;52.588;13.396;2023-02-02T13:06:25;4.20;;;1.60;;
57191;SDS011;43052;52.588;13.396;2023-02-02T13:12:09;4.88;;;1.35;;
57191;SDS011;43052;52.588;13.396;2023-02-02T13:14:51;6.78;;;1.60;;
57191;SDS011;43052;52.588;13.396;2023-02-02T13:17:28;6.68;;;1.45;;
57191;SDS011;43052;52.588;13.396;2023-02-02T13:19:59;4.05;;;1.55;;
57191;SDS011;43052;52.588;13.396;2023-02-02T13:22:32;7.90;;;2.10;;
57191;SDS011;43052;52.588;13.396;2023-02-02T13:25:12;5.25;;;2.03;;
57191;SDS011;43052;52.588;13.396;2023-02-02T13:27:43;8.10;;;2.00;;
57191;SDS011;43052;52.588;13.396;2023-02-02T13:30:16;3.03;;;1.20;;
57191;SDS011;43052;52.588;13.396;2023-02-02T13:32:51;3.25;;;1.27;;
57191;SDS011;43052;52.588;13.396;2023-02-02T13:35:23;4.80;;;1.35;;
57191;SDS011;43052;52.588;13.396;2023-02-02T13:40:43;3.30;;;1.70;;
57191;SDS011;43052;52.588;13.396;2023-02-02T13:43:16;3.33;;;1.52;;
57191;SDS011;43052;52.588;13.396;2023-02-02T13:48:23;4.05;;;1.55;;
57191;SDS011;43052;52.588;13.396;2023-02-02T13:51:17;4.80;;;1.70;;
57191;SDS011;43052;52.588;13.396;2023-02-02T13:59:50;5.53;;;1.60;;
57191;SDS011;43052;52.588;13.396;2023-02-02T14:02:33;4.90;;;1.35;;
57191;SDS011;43052;52.588;13.396;2023-02-02T14:05:08;6.60;;;1.60;;
57191;SDS011;43052;52.588;13.396;2023-02-02T14:07:45;10.85;;;2.20;;
57191;SDS011;43052;52.588;13.396;2023-02-02T14:10:20;7.80;;;1.80;;
57191;SDS011;43052;52.588;13.396;2023-02-02T14:12:48;6.30;;;2.45;;
57191;SDS011;43052;52.588;13.396;2023-02-02T14:15:14;3.90;;;1.45;;
57191;SDS011;43052;52.588;13.396;2023-02-02T14:20:09;4.97;;;2.53;;
57191;SDS011;43052;52.588;13.396;2023-02-02T14:34:33;4.45;;;2.05;;
57191;SDS011;43052;52.588;13.396;2023-02-02T14:39:50;4.60;;;1.80;;
57191;SDS011;43052;52.588;13.396;2023-02-02T14:48:07;6.10;;;1.90;;
57191;SDS011;43052;52.588;13.396;2023-02-02T14:50:50;4.28;;;1.73;;
57191;SDS011;43052;52.588;13.396;2023-02-02T14:53:29;6.45;;;2.15;;
57191;SDS011;43052;52.588;13.396;2023-02-02T14:56:01;4.22;;;1.88;;
57191;SDS011;43052;52.588;13.396;2023-02-02T15:06:23;4.00;;;1.90;;
57191;SDS011;43052;52.588;13.396;2023-02-02T15:12:13;3.97;;;1.70;;
57191;SDS011;43052;52.588;13.396;2023-02-02T15:14:48;4.83;;;1.80;;
57191;SDS011;43052;52.588;13.396;2023-02-02T15:23:01;6.65;;;3.30;;
57191;SDS011;43052;52.588;13.396;2023-02-02T15:33:42;5.97;;;3.45;;
57191;SDS011;43052;52.588;13.396;2023-02-02T15:36:10;6.85;;;3.20;;
57191;SDS011;43052;52.588;13.396;2023-02-02T15:38:38;6.63;;;3.35;;
57191;SDS011;43052;52.588;13.396;2023-02-02T15:41:13;5.22;;;3.28;;
57191;SDS011;43052;52.588;13.396;2023-02-02T15:43:44;4.85;;;3.20;;
57191;SDS011;43052;52.588;13.396;2023-02-02T15:46:11;7.57;;;2.95;;
57191;SDS011;43052;52.588;13.396;2023-02-02T15:48:39;5.10;;;2.58;;
57191;SDS011;43052;52.588;13.396;2023-02-02T15:51:14;6.32;;;2.60;;
57191;SDS011;43052;52.588;13.396;2023-02-02T15:56:24;6.13;;;2.80;;
57191;SDS011;43052;52.588;13.396;2023-02-02T15:58:54;8.65;;;3.03;;
57191;SDS011;43052;52.588;13.396;2023-02-02T16:01:22;8.98;;;3.50;;
57191;SDS011;43052;52.588;13.396;2023-02-02T16:03:50;6.82;;;3.33;;
57191;SDS011;43052;52.588;13.396;2023-02-02T16:06:25;7.68;;;3.70;;
57191;SDS011;43052;52.588;13.396;2023-02-02T16:08:51;9.57;;;3.92;;
57191;SDS011;43052;52.588;13.396;2023-02-02T16:11:17;10.27;;;4.72;;
57191;SDS011;43052;52.588;13.396;2023-02-02T16:14:01;8.80;;;4.35;;
57191;SDS011;43052;52.588;13.396;2023-02-02T16:16:33;10.20;;;5.90;;
57191;SDS011;43052;52.588;13.396;2023-02-02T16:19:19;10.77;;;6.50;;
57191;SDS011;43052;52.588;13.396;2023-02-02T16:21:47;13.07;;;6.45;;
57191;SDS011;43052;52.588;13.396;2023-02-02T16:24:30;12.37;;;6.63;;
57191;SDS011;43052;52.588;13.396;2023-02-02T16:26:59;12.07;;;6.97;;
57191;SDS011;43052;52.588;13.396;2023-02-02T16:29:26;13.07;;;6.63;;
57191;SDS011;43052;52.588;13.396;2023-02-02T16:31:52;10.60;;;6.20;;
57191;SDS011;43052;52.588;13.396;2023-02-02T16:37:03;15.13;;;8.30;;
57191;SDS011;43052;52.588;13.396;2023-02-02T16:39:29;12.07;;;7.22;;
57191;SDS011;43052;52.588;13.396;2023-02-02T16:41:55;12.73;;;7.82;;
57191;SDS011;43052;52.588;13.396;2023-02-02T16:44:41;10.65;;;6.43;;
57191;SDS011;43052;52.588;13.396;2023-02-02T16:47:29;10.93;;;5.88;;
57191;SDS011;43052;52.588;13.396;2023-02-02T16:52:31;9.73;;;5.53;;
57191;SDS011;43052;52.588;13.396;2023-02-02T16:54:57;11.57;;;6.25;;
57191;SDS011;43052;52.588;13.396;2023-02-02T16:57:26;12.57;;;6.03;;
57191;SDS011;43052;52.588;13.396;2023-02-02T16:59:55;9.55;;;5.45;;
57191;SDS011;43052;52.588;13.396;2023-02-02T17:05:03;10.43;;;5.38;;